createdAt,value
2017-08-31T00:00:03.408Z,6
2017-08-31T00:05:02.745Z,5
2017-08-31T00:10:03.211Z,2
2017-08-31T00:15:02.635Z,0
2017-08-31T00:20:03.214Z,2
2017-08-31T00:25:02.654Z,2
2017-08-31T00:30:03.268Z,3
2017-08-31T00:35:02.624Z,3
2017-08-31T00:40:03.229Z,2
2017-08-31T00:45:02.676Z,0
2017-08-31T00:50:03.235Z,2
2017-08-31T00:55:02.621Z,2
2017-08-31T01:00:03.363Z,1
2017-08-31T01:05:02.751Z,0
2017-08-31T01:10:03.462Z,2
2017-08-31T01:15:03.002Z,0
2017-08-31T01:20:02.619Z,2
2017-08-31T01:25:03.079Z,3
2017-08-31T01:30:03.514Z,2
2017-08-31T01:35:02.958Z,2
2017-08-31T01:40:03.458Z,2
2017-08-31T01:45:02.812Z,2
2017-08-31T01:50:03.511Z,3
2017-08-31T01:55:03.106Z,3
2017-08-31T02:00:02.796Z,3
2017-08-31T02:05:03.268Z,2
2017-08-31T02:10:02.871Z,2
2017-08-31T02:15:03.377Z,2
2017-08-31T02:20:02.923Z,2
2017-08-31T02:25:03.359Z,2
2017-08-31T02:30:02.914Z,0
2017-08-31T02:35:03.461Z,2
2017-08-31T02:40:02.916Z,0
2017-08-31T02:45:03.373Z,0
2017-08-31T02:50:02.992Z,0
2017-08-31T02:55:03.415Z,0
2017-08-31T03:00:02.933Z,0
2017-08-31T03:05:03.414Z,0
2017-08-31T03:10:02.873Z,1
2017-08-31T03:15:03.437Z,0
2017-08-31T03:20:02.846Z,2
2017-08-31T03:25:03.263Z,2
2017-08-31T03:30:02.660Z,0
2017-08-31T03:35:03.274Z,0
2017-08-31T03:40:02.751Z,0
2017-08-31T03:45:03.139Z,0
2017-08-31T03:50:02.596Z,0
2017-08-31T03:55:02.997Z,2
2017-08-31T04:00:03.446Z,0
2017-08-31T04:05:02.847Z,3
2017-08-31T04:10:03.446Z,0
2017-08-31T04:15:02.989Z,3
2017-08-31T04:20:03.426Z,1
2017-08-31T04:25:02.974Z,2
2017-08-31T04:30:02.870Z,3
2017-08-31T04:35:03.355Z,3
2017-08-31T04:40:02.813Z,2
2017-08-31T04:45:03.481Z,3
2017-08-31T04:50:02.989Z,2
2017-08-31T04:55:03.472Z,2
2017-08-31T05:00:03.043Z,3
2017-08-31T05:05:03.476Z,2
2017-08-31T05:10:02.921Z,2
2017-08-31T05:15:03.448Z,4
2017-08-31T05:20:02.892Z,4
2017-08-31T05:25:03.474Z,2
2017-08-31T05:30:02.878Z,3
2017-08-31T05:35:03.430Z,3
2017-08-31T05:40:02.962Z,3
2017-08-31T05:45:03.464Z,3
2017-08-31T05:50:03.081Z,4
2017-08-31T05:55:03.496Z,3
2017-08-31T06:00:02.886Z,2
2017-08-31T06:05:03.314Z,2
2017-08-31T06:10:02.852Z,2
2017-08-31T06:15:03.576Z,3
2017-08-31T06:20:02.947Z,2
2017-08-31T06:25:03.567Z,2
2017-08-31T06:30:02.969Z,3
2017-08-31T06:35:03.510Z,4
2017-08-31T06:40:03.068Z,2
2017-08-31T06:45:03.538Z,6
2017-08-31T06:50:03.010Z,4
2017-08-31T06:55:03.586Z,4
2017-08-31T07:00:03.097Z,2
2017-08-31T07:05:02.568Z,3
2017-08-31T07:10:03.184Z,4
2017-08-31T07:15:02.642Z,5
2017-08-31T07:20:03.135Z,2
2017-08-31T07:25:02.675Z,2
2017-08-31T07:30:03.096Z,6
2017-08-31T07:35:02.601Z,4
2017-08-31T07:40:03.094Z,6
2017-08-31T07:45:03.539Z,3
2017-08-31T07:50:02.944Z,4
2017-08-31T07:55:03.553Z,4
2017-08-31T08:00:02.993Z,6
2017-08-31T08:05:03.443Z,8
2017-08-31T08:10:03.092Z,6
2017-08-31T08:15:03.559Z,3
2017-08-31T08:20:03.209Z,6
2017-08-31T08:25:02.773Z,7
2017-08-31T08:30:03.386Z,5
2017-08-31T08:35:02.801Z,2
2017-08-31T08:40:03.328Z,2
2017-08-31T08:45:02.852Z,1
2017-08-31T08:50:03.392Z,1
2017-08-31T08:55:02.871Z,1
2017-08-31T09:00:03.355Z,1
2017-08-31T09:05:02.793Z,3
2017-08-31T09:10:03.402Z,6
2017-08-31T09:15:02.822Z,0
2017-08-31T09:20:03.264Z,3
2017-08-31T09:25:02.733Z,3
2017-08-31T09:30:03.261Z,3
2017-08-31T09:35:02.714Z,2
2017-08-31T09:40:03.174Z,1
2017-08-31T09:45:02.593Z,1
2017-08-31T09:50:03.140Z,2
2017-08-31T09:55:02.602Z,4
2017-08-31T10:00:02.992Z,3
2017-08-31T10:05:02.622Z,0
2017-08-31T10:10:03.149Z,5
2017-08-31T10:15:02.705Z,2
2017-08-31T10:20:03.250Z,2
2017-08-31T10:25:02.609Z,2
2017-08-31T10:30:03.175Z,3
2017-08-31T10:35:02.727Z,7
2017-08-31T10:40:03.308Z,4
2017-08-31T10:45:02.883Z,3
2017-08-31T10:50:03.336Z,2
2017-08-31T10:55:02.878Z,0
2017-08-31T11:00:03.456Z,5
2017-08-31T11:05:02.843Z,3
2017-08-31T11:10:03.385Z,5
2017-08-31T11:20:03.400Z,4
2017-08-31T11:25:02.935Z,5
2017-08-31T11:30:03.774Z,3
2017-08-31T11:35:03.906Z,4
2017-08-31T11:40:02.869Z,5
2017-08-31T11:50:03.073Z,3
2017-08-31T11:55:02.711Z,7
2017-08-31T12:00:03.173Z,2
2017-08-31T12:05:02.809Z,3
2017-08-31T12:10:03.403Z,5
2017-08-31T12:15:02.951Z,3
2017-08-31T12:20:02.621Z,5
2017-08-31T12:25:03.181Z,4
2017-08-31T12:30:02.613Z,4
2017-08-31T12:35:03.313Z,4
2017-08-31T12:40:02.906Z,2
2017-08-31T12:45:03.482Z,2
2017-08-31T12:50:03.016Z,2
2017-08-31T12:55:02.570Z,3
2017-08-31T13:00:03.034Z,2
2017-08-31T13:05:02.673Z,3
2017-08-31T13:10:03.193Z,6
2017-08-31T13:15:02.782Z,3
2017-08-31T13:20:03.378Z,3
2017-08-31T13:25:02.918Z,4
2017-08-31T13:30:03.368Z,4
2017-08-31T13:35:02.791Z,3
2017-08-31T13:40:03.403Z,3
2017-08-31T13:45:02.793Z,3
2017-08-31T13:50:03.319Z,5
2017-08-31T13:55:02.859Z,4
2017-08-31T14:00:03.430Z,2
2017-08-31T14:05:02.809Z,3
2017-08-31T14:10:03.434Z,3
2017-08-31T14:15:03.096Z,2
2017-08-31T14:20:03.568Z,5
2017-08-31T14:25:03.197Z,2
2017-08-31T14:30:02.601Z,6
2017-08-31T14:35:03.257Z,6
2017-08-31T14:40:02.844Z,5
2017-08-31T14:45:03.374Z,3
2017-08-31T14:50:02.947Z,5
2017-08-31T14:55:03.518Z,3
2017-08-31T15:00:02.946Z,1
2017-08-31T15:05:03.534Z,3
2017-08-31T15:10:03.024Z,5
2017-08-31T15:15:03.455Z,3
2017-08-31T15:20:02.889Z,2
2017-08-31T15:25:03.403Z,3
2017-08-31T15:30:02.907Z,2
2017-08-31T15:35:03.371Z,4
2017-08-31T15:40:02.837Z,2
2017-08-31T15:45:03.413Z,2
2017-08-31T15:50:02.981Z,2
2017-08-31T15:55:03.430Z,4
2017-08-31T16:00:03.095Z,2
2017-08-31T16:05:02.581Z,2
2017-08-31T16:10:03.240Z,2
2017-08-31T16:15:02.917Z,2
2017-08-31T16:20:03.392Z,1
2017-08-31T16:25:02.969Z,1
2017-08-31T16:30:03.434Z,0
2017-08-31T16:35:03.108Z,2
2017-08-31T16:40:03.522Z,0
2017-08-31T16:45:02.958Z,0
2017-08-31T16:50:03.478Z,0
2017-08-31T16:55:03.025Z,0
2017-08-31T17:00:02.651Z,0
2017-08-31T17:05:03.282Z,0
2017-08-31T17:10:02.738Z,0
2017-08-31T17:15:03.310Z,0
2017-08-31T17:20:02.742Z,0
2017-08-31T17:25:03.186Z,0
2017-08-31T17:30:02.593Z,0
2017-08-31T17:35:03.052Z,0
2017-08-31T17:40:02.683Z,0
2017-08-31T17:45:03.267Z,0
2017-08-31T17:50:02.780Z,0
2017-08-31T17:55:03.243Z,0
2017-08-31T18:00:02.620Z,0
2017-08-31T18:05:03.242Z,0
2017-08-31T18:10:02.688Z,0
2017-08-31T18:15:03.151Z,0
2017-08-31T18:20:02.689Z,0
2017-08-31T18:25:03.106Z,0
2017-08-31T18:30:03.570Z,0
2017-08-31T18:35:03.040Z,0
2017-08-31T18:40:03.512Z,0
2017-08-31T18:45:03.092Z,0
2017-08-31T18:50:03.573Z,0
2017-08-31T18:55:03.158Z,0
2017-08-31T19:00:02.678Z,0
2017-08-31T19:05:03.228Z,0
2017-08-31T19:10:02.923Z,0
2017-08-31T19:15:03.560Z,0
2017-08-31T19:20:03.006Z,0
2017-08-31T19:25:02.642Z,0
2017-08-31T19:30:03.057Z,0
2017-08-31T19:35:03.537Z,0
2017-08-31T19:40:03.029Z,0
2017-08-31T19:45:02.537Z,0
2017-08-31T19:50:03.076Z,0
2017-08-31T19:55:02.679Z,0
2017-08-31T20:00:03.169Z,0
2017-08-31T20:05:02.828Z,0
2017-08-31T20:10:03.345Z,0
2017-08-31T20:15:03.083Z,0
2017-08-31T20:20:02.713Z,0
2017-08-31T20:25:03.172Z,0
2017-08-31T20:30:02.756Z,0
2017-08-31T20:35:03.418Z,0
2017-08-31T20:40:02.925Z,0
2017-08-31T20:45:03.390Z,0
2017-08-31T20:50:02.827Z,0
2017-08-31T20:55:03.274Z,0
2017-08-31T21:00:02.653Z,0
2017-08-31T21:05:03.262Z,0
2017-08-31T21:10:02.902Z,0
2017-08-31T21:15:03.512Z,0
2017-08-31T21:20:03.036Z,0
2017-08-31T21:25:03.554Z,0
2017-08-31T21:30:03.123Z,0
2017-08-31T21:35:02.741Z,0
2017-08-31T21:40:03.216Z,0
2017-08-31T21:45:02.877Z,0
2017-08-31T21:50:03.408Z,0
2017-08-31T21:55:03.004Z,0
2017-08-31T22:00:02.604Z,0
2017-08-31T22:05:03.483Z,0
2017-08-31T22:10:03.074Z,0
2017-08-31T22:15:02.607Z,0
2017-08-31T22:20:03.084Z,0
2017-08-31T22:25:02.715Z,0
2017-08-31T22:30:03.169Z,0
2017-08-31T22:35:03.086Z,0
2017-08-31T22:40:02.573Z,0
2017-08-31T22:45:03.140Z,0
2017-08-31T22:50:02.795Z,0
2017-08-31T22:55:03.372Z,0
2017-08-31T23:00:03.487Z,0
2017-08-31T23:05:03.233Z,0
2017-08-31T23:10:02.874Z,0
2017-08-31T23:15:03.297Z,0
2017-08-31T23:20:02.854Z,0
2017-08-31T23:25:03.483Z,0
2017-08-31T23:30:03.107Z,0
2017-08-31T23:35:02.654Z,0
2017-08-31T23:40:03.226Z,0
2017-08-31T23:45:02.628Z,0
2017-08-31T23:50:03.265Z,0
2017-08-31T23:55:02.853Z,0
